Flight Track Log - Related Links

Times and Time Zones

All times are in EST time to prevent confusion due to time zone crossing. See the EJA922 flight status page for this flight to view local times or setup timezone preferences in your user account.

Time Position Orientation Groundspeed Altitude Reporting Facility
EST Latitude Longitude Course Direction KTS MPH feet Rate Location/Type
Fri 09:09:10 AM 37.6425 -97.4275 187° South 152 175 2,200  Level Kansas City Center
Fri 09:10:04 AM 37.5950 -97.4347 187° South 206 237 4,700 2,682 Climbing Kansas City Center
Fri 09:10:35 AM 37.5794 -97.3992 119° Southeast 244 281 6,000 3,148 Climbing Kansas City Center
Fri 09:11:05 AM 37.5931 -97.3506 71° East 310 357 7,900 3,344 Climbing Kansas City Center
Fri 09:11:36 AM 37.6208 -97.3133 47° Northeast 289 333 9,400 2,000 Climbing Kansas City Center
Fri 09:12:38 AM 37.6892 -97.2258 45° Northeast 340 391 11,000 780 Climbing Kansas City Center
Fri 09:13:39 AM 37.7742 -97.1169 45° Northeast 424 488 11,000  Level Kansas City Center
Fri 09:14:41 AM 37.8561 -97.0125 45° Northeast 432 497 11,000  Level Kansas City Center
Fri 09:15:43 AM 37.9408 -96.9033 45° Northeast 421 484 11,000  Level Kansas City Center
Fri 09:16:44 AM 38.0103 -96.7819 54° Northeast 408 470 11,000  Level Kansas City Center
Fri 09:17:46 AM 38.0700 -96.6447 61° Northeast 423 487 11,000 -49 Level Kansas City Center
Fri 09:18:47 AM 38.1281 -96.5119 61° Northeast 413 475 10,900 -49 Descending Kansas City Center
Fri 09:19:49 AM 38.1808 -96.3911 61° Northeast 409 471 10,900  Level Kansas City Center
Fri 09:20:51 AM 38.2331 -96.2706 61° Northeast 410 472 10,900  Level Kansas City Center
Fri 09:21:52 AM 38.2964 -96.1264 61° Northeast 415 478 10,900  Level Kansas City Center
Fri 09:22:54 AM 38.3497 -96.0019 61° Northeast 416 479 10,900  Level Kansas City Center
Fri 09:23:56 AM 38.4136 -95.8572 61° Northeast 419 482 10,900  Level Kansas City Center
Fri 09:24:58 AM 38.4675 -95.7336 61° Northeast 419 482 10,900  Level Kansas City Center
Fri 09:26:00 AM 38.5300 -95.5897 61° Northeast 418 481 10,900 -290 Level Kansas City Center
Fri 09:27:02 AM 38.5772 -95.4806 61° Northeast 362 417 10,300 -1,415 Descending Kansas City Center
Fri 09:28:03 AM 38.6367 -95.3861 51° Northeast 306 352 8,000 -1,951 Descending Kansas City Center
Fri 09:29:05 AM 38.6850 -95.3103 51° Northeast 292 336 6,300 -1,452 Descending Kansas City Center
Fri 09:30:07 AM 38.7325 -95.2353 51° Northeast 288 331 5,000 -1,403 Descending Kansas City Center
Fri 09:31:09 AM 38.7886 -95.1494 50° Northeast 285 328 3,400 -968 Descending Kansas City Center
Fri 09:32:11 AM 38.8353 -95.0797 49° Northeast 279 321 3,000 -290 Descending Kansas City Center
Fri 09:33:13 AM 38.8856 -95.0031 50° Northeast 263 303 2,800 -290 Descending Kansas City Center
Fri 09:34:15 AM 38.8931 -94.9358 82° East 220 253 2,400 -435 Descending Kansas City Center
Fri 09:35:17 AM 38.8700 -94.8906 123° Southeast 166 191 1,900 -581 Descending Kansas City Center
Fri 09:36:19 AM 38.8397 -94.8914 181° South 127 146 1,200 -677 Descending Kansas City Center

Login

Don't have an account? Register now (free) for customized features, flight alerts, and more!